Ana Sayfa
METAR-TAF:

METAR-TAF

Havaalanları :

Bowers Field

Ellensburg, Washington, Amerika Birleşik Devletleri

Enlem: 47-02-01N, Boylam: 120-31-45W, yükseklik: 536 m

Güncel hava durumu gözlemi

Rapor saat 02:53 UTC de 58 dakika önce yapıldı.
Rüzgar kuzeybatıdan 20 kt ve 28 kt'a kadar ani rüzgarlar
Sıcaklık 13°C
Nem 58%
Basınç 1010 hPa
Görüş mesafesi: 16.1 km
6500 ft yükseklikte çok bulutlu

METAR: KELN 250253Z AUTO 32020G28KT 10SM OVC065 13/05 A2983 RMK AO2 PK WND 32031/0217 SLP099 T01330050 53016

Saat: 20:51 (03:51 UTC)


TAF: eksik

4.000'den fazla havaalanı için hava durumu gözlemleri ve tahminleri (METAR ve TAF raporları).

Kullanılabilir istasyonlar harita üzerinde sarı ve kırmızı noktalarla gösterilir.

İstasyonun adını görmek için fareyi noktanın üzerinde gezdirin.

Sonrasında hava gözlem ve tahminlerini görmek için tıklayın.

Haritayı değiştirmek için: yaklaştırmak için siyah artı işaretli yeşil düğmeye ve uzaklaştırmak için de eksi işaretli düğmeye hızla tıklayın; bitişik haritalar için yeşil okları kullanın.


METAR-TAF: